Davenport, IA (52806)

5:53 AM CDT on July 29, 2016 (GMT -0500)
APRSWXNET | | Change Station

Elev 698 ft 41.59 °N, 90.61 °W | Updated 349 days ago

Cloudy
Cloudy
69 °F
Feels Like 69 °F
N
5
Wind Variable Wind from NNE
Gusts mph

Today
High -- | Low -- °F
--% Chance of Precip.
Yesterday
High -- | Low -- °F
Precip. -- in
Pressure 29.92 in
Visibility 5.0 miles
Clouds Mostly Cloudy 300 ft
Overcast 1400 ft
Dew Point 66 °F
Humidity 90%
Rainfall in
Snow Depth Not available.
5:54 AM 8:22 PM
Waning Crescent, 23% visible
SPECI KDVN 291021Z AUTO 28003KT 5SM BR BKN003 OVC014 21/20 A2992 RMK AO2 T02060200
Pressure 29.92 in
Visibility 5.0 miles
Clouds Mostly Cloudy 300 ft
Overcast 1400 ft
Dew Point 66 °F
Humidity 90%
Rainfall in
Snow Depth Not available.
5:54 AM 8:22 PM
Waning Crescent, 23% visible
SPECI KDVN 291021Z AUTO 28003KT 5SM BR BKN003 OVC014 21/20 A2992 RMK AO2 T02060200

10-Day Weather Forecast

Almanac

Astronomy

Jul. 29, 2016 Rise Set
Actual Time
Civil Twilight
Nautical Twilight
Astronomical Twilight
Moon
Length of Visible Light
Length of Day
Tomorrow will be .
, % of the Moon is Illuminated

Today's Extremes

State Highs State Lows

Community

WunderPhotos

Upload Photos

1,928,311 photos uploaded!

WunderBlog® & News

Nearby

Air Quality

  Air Quality AQ Index Pollutant
Not available.

Snow Depth

Station Depth Elevation

Earthquake Activity

City Distance Mag. Time & Date
Minimum magnitude displayed is 2.5.

Coastal Water Temperatures

Place Temperature

Stations

Nearby Weather Stations

Station Location Temp. Windchill Dew Point Humidity Wind Precip. Elev Updated Type
                   

Watches & Warnings

There are currently no watches in effect.